Time;durP1;ratioP1;P1;durP2;ratioP2;P2;SDS_P1;SDS_P2;PMS_P1;PMS_P2;Temp;Humidity;BMP_temperature;BMP_pressure;BME280_temperature;BME280_humidity;BME280_pressure;Samples;Min_cycle;Max_cycle;Signal;HPM_P1;HPM_P2
2023/03/01 00:01:13;;;;;;;209.27;34.10;;;-0.30;99.90;;;;;;5071599;28;20067;-61
2023/03/01 00:03:39;;;;;;;126.07;27.50;;;-0.30;99.90;;;;;;5072214;28;20846;-60
2023/03/01 00:06:06;;;;;;;261.90;35.90;;;-0.40;99.90;;;;;;5076351;28;20365;-60
2023/03/01 00:08:32;;;;;;;357.95;33.70;;;-0.40;99.90;;;;;;5079400;28;20678;-60
2023/03/01 00:11:14;;;;;;;484.42;41.28;;;-0.40;99.90;;;;;;5081222;28;20040;-60
2023/03/01 00:13:41;;;;;;;294.42;29.52;;;-0.40;99.90;;;;;;5082277;28;20513;-61
2023/03/01 00:16:14;;;;;;;338.00;31.10;;;-0.40;99.90;;;;;;5089144;28;20040;-60
2023/03/01 00:18:40;;;;;;;340.45;39.90;;;-0.40;99.90;;;;;;5083530;28;20243;-61
2023/03/01 00:21:06;;;;;;;324.77;34.88;;;-0.40;99.90;;;;;;5081690;28;20532;-60
2023/03/01 00:23:34;;;;;;;214.05;27.73;;;-0.40;99.90;;;;;;5077539;28;20051;-61
2023/03/01 00:25:59;;;;;;;403.83;46.65;;;-0.40;99.90;;;;;;5082403;28;20082;-61
2023/03/01 00:28:25;;;;;;;419.50;41.20;;;-0.40;99.90;;;;;;5083866;28;20071;-60
2023/03/01 00:30:50;;;;;;;317.77;29.13;;;-0.40;99.90;;;;;;5065656;28;20058;-61
2023/03/01 00:33:16;;;;;;;524.15;46.85;;;-0.40;99.90;;;;;;5063162;28;20093;-60
2023/03/01 00:35:42;;;;;;;225.70;28.90;;;-0.40;99.90;;;;;;5063892;28;20122;-60
2023/03/01 00:38:08;;;;;;;278.40;32.67;;;-0.50;99.90;;;;;;5071015;28;20050;-60
2023/03/01 00:40:35;;;;;;;246.77;30.73;;;-0.50;99.90;;;;;;5062778;28;20079;-60
2023/03/01 00:43:01;;;;;;;128.30;20.80;;;-0.50;99.90;;;;;;5061843;28;20126;-60
2023/03/01 00:45:27;;;;;;;98.90;18.33;;;-0.60;99.90;;;;;;5063641;28;20087;-60
2023/03/01 00:47:53;;;;;;;99.15;17.75;;;-0.60;99.90;;;;;;5063649;28;20147;-61
2023/03/01 00:50:19;;;;;;;86.32;18.10;;;-0.70;99.90;;;;;;5062043;28;20076;-60
2023/03/01 00:52:45;;;;;;;58.28;16.85;;;-0.70;99.90;;;;;;5070482;28;20079;-60
2023/03/01 00:55:11;;;;;;;112.35;19.33;;;-0.80;99.90;;;;;;5061765;28;20048;-60
2023/03/01 00:57:37;;;;;;;48.78;15.73;;;-0.80;99.90;;;;;;5063322;28;20056;-61
2023/03/01 01:00:05;;;;;;;33.97;15.63;;;-0.90;99.90;;;;;;5063557;28;20139;-60
2023/03/01 01:02:33;;;;;;;82.93;17.05;;;-0.90;99.90;;;;;;5061590;28;20063;-60
2023/03/01 01:04:59;;;;;;;97.93;15.48;;;-1.10;99.90;;;;;;5062971;28;20040;-61
2023/03/01 01:07:24;;;;;;;55.08;13.38;;;-1.10;99.90;;;;;;5063762;28;20089;-60
2023/03/01 01:09:50;;;;;;;27.98;12.70;;;-1.20;99.90;;;;;;5060897;28;20129;-60
2023/03/01 01:12:15;;;;;;;31.65;16.08;;;-1.30;99.90;;;;;;5062731;28;20099;-61
2023/03/01 01:14:41;;;;;;;28.70;16.17;;;-1.40;99.90;;;;;;5070137;28;20114;-60
2023/03/01 01:17:07;;;;;;;34.33;17.20;;;-1.40;99.90;;;;;;5083733;28;20048;-60
2023/03/01 01:19:32;;;;;;;41.60;20.08;;;-1.40;99.90;;;;;;5083258;28;20398;-60
2023/03/01 01:21:58;;;;;;;59.53;20.58;;;-1.50;99.90;;;;;;5074475;28;20043;-60
2023/03/01 01:24:23;;;;;;;333.40;33.75;;;-1.50;99.90;;;;;;5060299;28;20127;-59
2023/03/01 01:26:49;;;;;;;53.42;19.45;;;-1.50;99.90;;;;;;5062992;28;20089;-60
2023/03/01 01:29:15;;;;;;;463.45;45.55;;;-1.50;99.90;;;;;;5063695;28;20102;-60
2023/03/01 01:31:42;;;;;;;155.32;24.75;;;-1.50;99.90;;;;;;5063106;28;20118;-60
2023/03/01 01:34:14;;;;;;;173.73;24.77;;;-1.50;99.90;;;;;;5063502;28;20075;-60
2023/03/01 01:36:39;;;;;;;133.38;24.85;;;-1.50;99.90;;;;;;5065902;28;20036;-59
2023/03/01 01:39:05;;;;;;;425.30;35.85;;;-1.50;99.90;;;;;;5065430;28;20487;-60
2023/03/01 01:41:31;;;;;;;136.57;25.48;;;-1.50;99.90;;;;;;5066295;28;20061;-60
2023/03/01 01:44:20;;;;;;;79.30;21.25;;;-1.50;99.90;;;;;;5065112;28;20529;-61
2023/03/01 01:47:14;;;;;;;256.88;31.95;;;-1.50;99.90;;;;;;5066546;28;20029;-60
2023/03/01 01:49:50;;;;;;;107.60;22.70;;;-1.60;99.90;;;;;;5062281;28;20223;-60
2023/03/01 01:52:25;;;;;;;93.80;19.42;;;-1.70;99.90;;;;;;5066174;28;20430;-60
2023/03/01 01:55:14;;;;;;;81.45;19.35;;;-1.80;99.90;;;;;;5065044;28;20502;-59
2023/03/01 01:57:56;;;;;;;35.00;17.60;;;-1.80;99.90;;;;;;5065056;28;20044;-60
2023/03/01 02:00:27;;;;;;;34.40;18.30;;;-1.80;99.90;;;;;;5074375;28;20050;-59
2023/03/01 02:03:00;;;;;;;135.18;22.38;;;-1.90;99.90;;;;;;5082862;28;20471;-60
2023/03/01 02:05:51;;;;;;;359.75;38.15;;;-1.80;99.90;;;;;;5064756;28;20074;-60
2023/03/01 02:08:19;;;;;;;280.23;33.10;;;-1.80;99.90;;;;;;5065545;28;20045;-60
2023/03/01 02:10:47;;;;;;;113.97;23.75;;;-1.70;99.90;;;;;;5065418;28;20036;-59
2023/03/01 02:13:13;;;;;;;145.85;23.75;;;-1.70;99.90;;;;;;5064663;28;20049;-60
2023/03/01 02:15:40;;;;;;;161.77;25.23;;;-1.70;99.90;;;;;;5066085;28;20089;-60
2023/03/01 02:18:07;;;;;;;344.58;32.97;;;-1.70;99.90;;;;;;5066003;28;20178;-61
2023/03/01 02:20:59;;;;;;;271.20;35.88;;;-1.70;99.90;;;;;;5066505;28;20068;-60
2023/03/01 02:23:25;;;;;;;296.25;34.97;;;-1.70;99.90;;;;;;5064563;28;20044;-60
2023/03/01 02:26:07;;;;;;;322.65;37.08;;;-1.80;99.90;;;;;;5064297;28;20127;-60
2023/03/01 02:28:37;;;;;;;58.53;17.13;;;-1.80;99.90;;;;;;5065852;28;20510;-60
2023/03/01 02:33:52;;;;;;;41.67;17.75;;;-1.90;99.90;;;;;;5074311;28;20495;-60
2023/03/01 02:36:22;;;;;;;51.85;17.95;;;-2.00;99.90;;;;;;5066707;28;20100;-59
2023/03/01 02:38:49;;;;;;;36.47;16.98;;;-2.00;99.90;;;;;;5063190;28;20062;-59
2023/03/01 02:41:17;;;;;;;33.30;15.40;;;-2.10;99.90;;;;;;5065127;28;20040;-60
2023/03/01 02:43:43;;;;;;;38.88;17.90;;;-2.10;99.90;;;;;;5065617;28;20048;-60
2023/03/01 02:46:18;;;;;;;55.35;18.73;;;-2.10;99.90;;;;;;5064406;28;20037;-58
2023/03/01 02:48:50;;;;;;;206.00;29.58;;;-2.20;99.90;;;;;;5064643;28;20044;-60
2023/03/01 02:51:48;;;;;;;34.38;16.90;;;-2.20;99.90;;;;;;5064801;28;20052;-61
2023/03/01 02:54:25;;;;;;;42.45;16.38;;;-2.20;99.90;;;;;;5079559;28;20062;-59
2023/03/01 02:56:51;;;;;;;66.63;19.27;;;-2.30;99.90;;;;;;5085197;28;20461;-60
2023/03/01 02:59:21;;;;;;;55.65;17.60;;;-2.30;99.90;;;;;;5085967;28;20048;-60
2023/03/01 03:01:47;;;;;;;47.60;18.92;;;-2.30;99.90;;;;;;5079543;28;20032;-59
2023/03/01 03:04:18;;;;;;;61.17;18.63;;;-2.30;99.90;;;;;;5065252;28;20601;-59
2023/03/01 03:06:49;;;;;;;46.25;19.58;;;-2.30;99.90;;;;;;5066964;28;20067;-60
2023/03/01 03:09:16;;;;;;;142.38;22.00;;;-2.40;99.90;;;;;;5084105;28;20610;-59
2023/03/01 03:11:42;;;;;;;82.22;19.65;;;-2.40;99.90;;;;;;5069695;28;20040;-59
2023/03/01 03:14:12;;;;;;;43.47;17.58;;;-2.50;99.90;;;;;;5065034;28;20878;-59
2023/03/01 03:16:47;;;;;;;48.55;17.58;;;-2.60;99.90;;;;;;5080498;28;20051;-59
2023/03/01 03:19:13;;;;;;;95.07;23.63;;;-2.70;99.90;;;;;;5063887;28;20569;-59
2023/03/01 03:21:39;;;;;;;64.97;22.50;;;-2.70;99.90;;;;;;5082564;28;20131;-60
2023/03/01 03:24:05;;;;;;;66.45;22.52;;;-2.80;99.90;;;;;;5083649;28;20043;-59
2023/03/01 03:26:32;;;;;;;94.53;24.33;;;-2.80;99.90;;;;;;5084658;28;20044;-59
2023/03/01 03:28:57;;;;;;;54.70;20.95;;;-2.90;99.90;;;;;;5078652;28;20039;-60
2023/03/01 03:31:23;;;;;;;36.63;18.77;;;-2.90;99.90;;;;;;5064228;28;20523;-59
2023/03/01 03:33:49;;;;;;;33.92;16.75;;;-2.90;99.90;;;;;;5074026;28;20506;-59
2023/03/01 03:36:19;;;;;;;33.55;18.40;;;-3.00;99.90;;;;;;5081008;28;20073;-60
2023/03/01 03:38:45;;;;;;;38.63;19.55;;;-3.00;99.90;;;;;;5083265;28;20047;-60
2023/03/01 03:41:12;;;;;;;57.33;21.55;;;-3.00;99.90;;;;;;5075689;28;20032;-59
2023/03/01 03:43:40;;;;;;;103.43;26.08;;;-3.00;99.90;;;;;;5064504;28;20051;-60
2023/03/01 03:46:06;;;;;;;41.92;20.45;;;-3.10;99.90;;;;;;5064628;28;20497;-59
2023/03/01 03:48:38;;;;;;;40.30;21.13;;;-3.10;99.90;;;;;;5064210;28;20078;-59
2023/03/01 03:51:06;;;;;;;39.85;20.70;;;-3.10;99.90;;;;;;5064066;28;20051;-60
2023/03/01 03:53:32;;;;;;;40.80;20.98;;;-3.10;99.90;;;;;;5062546;28;20056;-60
2023/03/01 03:55:58;;;;;;;41.75;20.63;;;-3.10;99.90;;;;;;5063762;28;20040;-60
2023/03/01 03:58:25;;;;;;;121.25;26.13;;;-3.00;99.90;;;;;;5074243;28;20060;-59
2023/03/01 04:00:56;;;;;;;88.03;22.83;;;-3.00;99.90;;;;;;5083870;28;20044;-60
2023/03/01 04:03:23;;;;;;;51.70;20.02;;;-3.00;99.90;;;;;;5077206;28;20048;-60
2023/03/01 04:05:51;;;;;;;50.03;20.42;;;-3.00;99.90;;;;;;5064182;28;20045;-59
2023/03/01 04:08:21;;;;;;;71.93;21.38;;;-3.10;99.90;;;;;;5078746;28;20043;-60
2023/03/01 04:10:50;;;;;;;70.90;22.50;;;-3.10;99.90;;;;;;5074932;28;20515;-61
2023/03/01 04:13:19;;;;;;;44.33;19.65;;;-3.10;99.90;;;;;;5063133;28;20134;-60
2023/03/01 04:15:46;;;;;;;47.22;19.23;;;-3.20;99.90;;;;;;5064177;28;20069;-59
2023/03/01 04:18:13;;;;;;;45.03;18.77;;;-3.20;99.90;;;;;;5073951;28;20059;-60
2023/03/01 04:20:39;;;;;;;62.80;18.60;;;-3.30;99.90;;;;;;5062200;28;20135;-61
2023/03/01 04:23:13;;;;;;;104.00;19.98;;;-3.30;99.90;;;;;;5073148;28;20658;-60
2023/03/01 04:25:39;;;;;;;70.38;17.00;;;-3.30;99.90;;;;;;5077501;28;20048;-60
2023/03/01 04:28:05;;;;;;;78.32;16.88;;;-3.40;99.90;;;;;;5079473;28;20032;-59
2023/03/01 04:30:35;;;;;;;127.10;17.20;;;-3.40;99.90;;;;;;5063812;28;20051;-59
2023/03/01 04:33:03;;;;;;;60.95;15.18;;;-3.50;99.90;;;;;;5069091;28;20051;-59
2023/03/01 04:35:29;;;;;;;165.05;20.98;;;-3.50;99.90;;;;;;5063332;28;20067;-59
2023/03/01 04:37:55;;;;;;;148.02;19.50;;;-3.50;99.90;;;;;;5062733;28;20041;-59
2023/03/01 04:40:21;;;;;;;45.22;16.13;;;-3.60;99.90;;;;;;5061727;28;20052;-60
2023/03/01 04:42:47;;;;;;;72.10;17.65;;;-3.60;99.90;;;;;;5078679;28;20044;-59
2023/03/01 04:45:12;;;;;;;124.75;18.25;;;-3.60;99.90;;;;;;5062247;28;20102;-59
2023/03/01 04:47:40;;;;;;;122.45;19.67;;;-3.70;99.90;;;;;;5063965;28;20036;-60
2023/03/01 04:50:07;;;;;;;61.30;18.55;;;-3.70;99.90;;;;;;5083528;28;20435;-59
2023/03/01 04:52:32;;;;;;;61.83;18.98;;;-3.70;99.90;;;;;;5068841;28;20033;-59
2023/03/01 04:54:58;;;;;;;68.10;19.27;;;-3.80;99.90;;;;;;5061915;28;20510;-60
2023/03/01 04:57:23;;;;;;;80.57;19.85;;;-3.80;99.90;;;;;;5063317;28;20497;-60
2023/03/01 04:59:49;;;;;;;176.65;21.67;;;-3.80;99.90;;;;;;5080444;28;20525;-58
2023/03/01 05:02:14;;;;;;;170.65;22.58;;;-3.80;99.90;;;;;;5080490;28;20117;-59
2023/03/01 05:04:40;;;;;;;236.63;26.85;;;-3.80;99.90;;;;;;5062720;28;20049;-60
2023/03/01 05:07:05;;;;;;;286.27;28.13;;;-3.90;99.90;;;;;;5067125;28;20147;-59
2023/03/01 05:09:31;;;;;;;148.63;21.15;;;-3.90;99.90;;;;;;5074037;28;20051;-60
2023/03/01 05:11:57;;;;;;;152.95;23.15;;;-3.90;99.90;;;;;;5065566;28;20495;-59
2023/03/01 05:14:22;;;;;;;157.68;24.83;;;-4.00;99.90;;;;;;5066877;28;20545;-60
2023/03/01 05:16:48;;;;;;;36.40;18.52;;;-4.00;99.90;;;;;;5066756;28;20032;-60
2023/03/01 05:19:22;;;;;;;34.97;18.38;;;-4.00;99.90;;;;;;5079086;28;20424;-60
2023/03/01 05:22:05;;;;;;;27.83;15.68;;;-4.00;99.90;;;;;;5080112;28;20036;-59
2023/03/01 05:24:33;;;;;;;34.93;17.57;;;-4.00;99.90;;;;;;5065647;28;20056;-60
2023/03/01 05:27:00;;;;;;;32.75;18.40;;;-4.00;99.90;;;;;;5065236;28;20466;-59
2023/03/01 05:29:28;;;;;;;27.67;16.67;;;-4.00;99.90;;;;;;5067155;28;20036;-60
2023/03/01 05:31:57;;;;;;;31.00;17.42;;;-4.00;99.90;;;;;;5066558;28;20650;-60
2023/03/01 05:34:32;;;;;;;32.92;17.85;;;-4.00;99.90;;;;;;5066772;28;20037;-59
2023/03/01 05:36:57;;;;;;;34.38;18.05;;;-4.00;99.90;;;;;;5066874;28;20048;-59
2023/03/01 05:39:25;;;;;;;36.17;18.00;;;-4.00;99.90;;;;;;5081781;28;20054;-60
2023/03/01 05:41:59;;;;;;;40.20;19.52;;;-3.90;99.90;;;;;;5067090;28;20047;-59
2023/03/01 05:44:26;;;;;;;38.97;19.40;;;-3.90;99.90;;;;;;5066607;28;20052;-60
2023/03/01 05:46:52;;;;;;;37.72;18.90;;;-3.80;99.90;;;;;;5077885;28;20036;-59
2023/03/01 05:49:18;;;;;;;35.55;18.95;;;-3.80;99.90;;;;;;5071398;28;20041;-59
2023/03/01 05:51:50;;;;;;;36.92;17.90;;;-3.70;99.90;;;;;;5072174;28;20043;-60
2023/03/01 05:54:17;;;;;;;66.10;24.23;;;-3.70;99.90;;;;;;5069015;28;20068;-60
2023/03/01 05:56:43;;;;;;;328.63;37.00;;;-3.60;99.90;;;;;;5065985;28;20056;-59
2023/03/01 05:59:09;;;;;;;265.08;37.63;;;-3.50;99.90;;;;;;5065223;28;20076;-59
2023/03/01 06:01:35;;;;;;;402.48;44.67;;;-3.40;99.90;;;;;;5066235;28;20170;-59
2023/03/01 06:04:01;;;;;;;411.58;44.00;;;-3.30;99.90;;;;;;5066370;28;20040;-60
2023/03/01 06:06:27;;;;;;;318.33;41.35;;;-3.20;99.90;;;;;;5066356;28;20046;-60
2023/03/01 06:08:53;;;;;;;340.70;41.05;;;-3.10;99.90;;;;;;5065086;28;20032;-59
2023/03/01 06:11:20;;;;;;;316.08;39.67;;;-3.10;99.90;;;;;;5065346;28;20127;-59
2023/03/01 06:13:46;;;;;;;206.85;32.97;;;-3.00;99.90;;;;;;5065001;28;20427;-60
2023/03/01 06:16:12;;;;;;;316.35;42.95;;;-3.00;99.90;;;;;;5069370;28;20035;-60
2023/03/01 06:18:39;;;;;;;241.70;38.38;;;-3.00;99.90;;;;;;5077647;28;20037;-60
2023/03/01 06:21:06;;;;;;;258.42;36.85;;;-3.00;99.90;;;;;;5065519;28;20040;-60
2023/03/01 06:23:32;;;;;;;192.23;32.67;;;-3.00;99.90;;;;;;5079469;28;20455;-60
2023/03/01 06:25:58;;;;;;;184.48;32.00;;;-2.90;99.90;;;;;;5080389;28;20407;-59
2023/03/01 06:28:23;;;;;;;93.70;25.75;;;-2.90;99.90;;;;;;5065924;28;20034;-61
2023/03/01 06:30:52;;;;;;;293.15;35.80;;;-2.90;99.90;;;;;;5070469;28;20051;-59
2023/03/01 06:33:23;;;;;;;335.27;45.42;;;-2.90;99.90;;;;;;5080757;28;20624;-59
2023/03/01 06:35:50;;;;;;;148.93;29.42;;;-2.90;99.90;;;;;;5066038;28;20044;-59
2023/03/01 06:38:18;;;;;;;252.13;38.72;;;-2.90;99.90;;;;;;5064651;28;20040;-60
2023/03/01 06:40:44;;;;;;;204.20;31.80;;;-2.90;99.90;;;;;;5064769;28;20036;-59
2023/03/01 06:43:09;;;;;;;85.38;26.55;;;-2.80;99.90;;;;;;5065913;28;20085;-59
2023/03/01 06:45:38;;;;;;;273.23;36.25;;;-2.90;99.90;;;;;;5065647;28;20045;-61
2023/03/01 06:48:07;;;;;;;212.32;30.65;;;-2.80;99.90;;;;;;5065572;28;20537;-60
2023/03/01 06:50:34;;;;;;;431.70;43.53;;;-2.80;99.90;;;;;;5068060;28;20051;-59
2023/03/01 06:53:00;;;;;;;378.73;45.58;;;-2.80;99.90;;;;;;5069300;28;20051;-60
2023/03/01 06:55:26;;;;;;;185.95;31.75;;;-2.80;99.90;;;;;;5063789;28;20830;-59
2023/03/01 06:57:58;;;;;;;81.07;24.25;;;-2.70;99.90;;;;;;5067575;28;20052;-60
2023/03/01 07:00:25;;;;;;;142.35;28.38;;;-2.70;99.90;;;;;;5084526;28;20083;-59
2023/03/01 07:02:51;;;;;;;129.38;26.95;;;-2.70;99.90;;;;;;5073827;28;20422;-60
2023/03/01 07:05:17;;;;;;;202.18;29.73;;;-2.60;99.90;;;;;;5082247;28;20108;-59
2023/03/01 07:07:42;;;;;;;336.15;38.30;;;-2.50;99.90;;;;;;5077123;28;20040;-60
2023/03/01 07:10:09;;;;;;;83.63;22.30;;;-2.50;99.90;;;;;;5083806;28;20448;-58
2023/03/01 07:12:34;;;;;;;122.15;23.75;;;-2.40;99.90;;;;;;5083157;28;20032;-61
2023/03/01 07:15:00;;;;;;;155.93;25.48;;;-2.40;99.90;;;;;;5080933;28;20036;-60
2023/03/01 07:17:25;;;;;;;92.38;24.20;;;-2.30;99.90;;;;;;5085352;28;20518;-61
2023/03/01 07:19:51;;;;;;;179.10;27.38;;;-2.30;99.90;;;;;;5066575;28;20439;-59
2023/03/01 07:22:16;;;;;;;53.13;21.10;;;-2.20;99.90;;;;;;5068577;28;20124;-57
2023/03/01 07:24:42;;;;;;;137.18;25.73;;;-2.20;99.90;;;;;;5080885;28;20052;-60
2023/03/01 07:27:08;;;;;;;214.18;27.00;;;-2.10;99.90;;;;;;5076000;28;20028;-61
2023/03/01 07:29:36;;;;;;;130.68;25.20;;;-2.00;99.90;;;;;;5067111;28;20075;-60
2023/03/01 07:32:02;;;;;;;41.28;19.55;;;-1.90;99.90;;;;;;5079994;28;20040;-60
2023/03/01 07:34:27;;;;;;;79.88;20.83;;;-1.70;99.90;;;;;;5064196;28;20052;-59
2023/03/01 07:36:53;;;;;;;68.25;19.02;;;-1.60;99.90;;;;;;5067540;28;20467;-60
2023/03/01 07:39:18;;;;;;;81.03;21.17;;;-1.40;99.90;;;;;;5065200;28;20051;-60
2023/03/01 07:41:44;;;;;;;83.28;21.48;;;-1.30;99.90;;;;;;5080038;28;20051;-59
2023/03/01 07:44:10;;;;;;;48.47;20.90;;;-1.20;99.90;;;;;;5066366;28;20097;-61
2023/03/01 07:46:36;;;;;;;47.70;21.88;;;-1.00;99.90;;;;;;5067476;28;20079;-60
2023/03/01 07:49:01;;;;;;;36.17;18.67;;;-0.80;99.90;;;;;;5066277;28;20127;-60
2023/03/01 07:51:27;;;;;;;31.60;17.95;;;-0.60;99.90;;;;;;5066486;28;20036;-61
2023/03/01 07:53:53;;;;;;;30.65;17.33;;;-0.40;99.90;;;;;;5067285;28;20048;-59
2023/03/01 07:56:19;;;;;;;26.92;17.02;;;-0.10;99.90;;;;;;5069099;28;20032;-61
2023/03/01 07:58:45;;;;;;;29.75;17.33;;;0.20;99.90;;;;;;5068367;28;20036;-60
2023/03/01 08:01:17;;;;;;;26.92;17.50;;;0.60;99.90;;;;;;5068252;28;20399;-58
2023/03/01 08:03:43;;;;;;;37.33;21.02;;;0.90;99.90;;;;;;5068053;28;20055;-59
2023/03/01 08:06:11;;;;;;;37.25;18.48;;;1.20;99.90;;;;;;5069460;28;20040;-61
2023/03/01 08:08:37;;;;;;;27.48;16.75;;;1.40;99.90;;;;;;5064940;28;20048;-58
2023/03/01 08:11:05;;;;;;;26.23;17.63;;;1.70;99.90;;;;;;5065364;28;20051;-60
2023/03/01 08:13:31;;;;;;;25.67;17.15;;;1.90;99.90;;;;;;5060684;28;20141;-58
2023/03/01 08:16:05;;;;;;;29.35;18.75;;;2.10;99.90;;;;;;5067000;28;20063;-61
2023/03/01 08:18:31;;;;;;;;;;;2.10;99.90;;;;;;5068856;28;20063;-60
2023/03/01 08:21:08;;;;;;;27.17;16.63;;;1.90;99.90;;;;;;5073831;28;20065;-59
2023/03/01 08:23:34;;;;;;;30.73;17.35;;;1.90;99.90;;;;;;5076664;28;20040;-59
2023/03/01 08:26:09;;;;;;;108.15;27.02;;;1.80;99.90;;;;;;5083030;28;20037;-59
2023/03/01 08:28:35;;;;;;;65.35;26.40;;;1.70;99.90;;;;;;5083770;28;20047;-59
2023/03/01 08:31:01;;;;;;;167.20;32.13;;;1.70;99.90;;;;;;5083073;28;20040;-58
2023/03/01 08:33:27;;;;;;;220.77;31.75;;;1.70;99.90;;;;;;5076564;28;20551;-59
2023/03/01 08:35:52;;;;;;;273.08;35.35;;;1.70;99.90;;;;;;5082489;28;20028;-59
2023/03/01 08:38:18;;;;;;;156.32;30.05;;;1.70;99.90;;;;;;5061521;28;20032;-59
2023/03/01 08:40:43;;;;;;;205.15;34.53;;;1.70;99.90;;;;;;5060751;28;20040;-60
2023/03/01 08:43:09;;;;;;;123.65;28.20;;;1.70;99.90;;;;;;5061655;28;20046;-61
2023/03/01 08:45:34;;;;;;;125.15;27.75;;;1.70;99.90;;;;;;5070689;28;20168;-59
2023/03/01 08:48:00;;;;;;;150.93;31.88;;;1.80;99.90;;;;;;5066836;28;20134;-61
2023/03/01 08:50:26;;;;;;;148.57;30.27;;;1.80;99.90;;;;;;5068529;28;20058;-60
2023/03/01 08:52:51;;;;;;;169.85;29.40;;;1.80;99.90;;;;;;5069624;28;20184;-60
2023/03/01 08:55:17;;;;;;;270.05;31.23;;;1.90;99.90;;;;;;5070770;28;20048;-60
2023/03/01 08:57:43;;;;;;;100.35;27.48;;;1.90;99.90;;;;;;5068244;28;20060;-59
2023/03/01 09:00:11;;;;;;;131.48;27.27;;;2.00;99.90;;;;;;5070310;28;20056;-59
2023/03/01 09:02:37;;;;;;;142.50;26.40;;;2.10;99.90;;;;;;5071279;28;20172;-58
2023/03/01 09:05:03;;;;;;;79.22;25.15;;;2.20;99.90;;;;;;5067448;28;20048;-60
2023/03/01 09:07:28;;;;;;;102.45;25.90;;;2.30;99.90;;;;;;5081754;28;20321;-58
2023/03/01 09:09:54;;;;;;;171.90;27.70;;;2.40;99.90;;;;;;5089385;28;20024;-58
2023/03/01 09:12:21;;;;;;;137.13;30.40;;;2.40;99.90;;;;;;5096235;28;20063;-59
2023/03/01 09:14:46;;;;;;;134.23;31.45;;;2.30;99.90;;;;;;5087460;28;20471;-59
2023/03/01 09:17:12;;;;;;;138.00;33.03;;;2.30;99.90;;;;;;5070127;28;20097;-59
2023/03/01 09:19:37;;;;;;;91.65;31.52;;;2.30;99.90;;;;;;5067655;28;20048;-59
2023/03/01 09:22:04;;;;;;;128.43;33.25;;;2.40;99.90;;;;;;5065467;28;20048;-60
2023/03/01 09:24:30;;;;;;;97.53;30.73;;;2.50;99.90;;;;;;5060180;28;20040;-60
2023/03/01 09:26:56;;;;;;;74.57;29.08;;;2.70;99.90;;;;;;5065671;28;20093;-58
2023/03/01 09:29:22;;;;;;;109.80;34.55;;;2.80;99.90;;;;;;5065319;28;20040;-62
2023/03/01 09:31:48;;;;;;;102.88;35.35;;;3.00;99.90;;;;;;5062087;28;20135;-60
2023/03/01 09:34:15;;;;;;;97.57;33.00;;;3.10;99.90;;;;;;5077699;28;20050;-58
2023/03/01 09:36:41;;;;;;;89.30;32.67;;;3.10;99.90;;;;;;5081358;28;20052;-58
2023/03/01 09:39:07;;;;;;;110.68;35.00;;;3.20;99.90;;;;;;5082788;28;20046;-58
2023/03/01 09:41:38;;;;;;;73.50;36.90;;;3.20;99.90;;;;;;5081922;28;20040;-58
2023/03/01 09:44:09;;;;;;;65.70;33.67;;;3.20;99.90;;;;;;5079617;28;20051;-58
2023/03/01 09:46:41;;;;;;;64.60;33.65;;;3.20;99.90;;;;;;5077886;28;20032;-58
2023/03/01 09:49:31;;;;;;;56.45;31.10;;;3.30;99.90;;;;;;5079444;28;20039;-57
2023/03/01 09:52:30;;;;;;;60.63;31.65;;;3.60;99.90;;;;;;5064165;28;20052;-58
2023/03/01 09:54:56;;;;;;;65.38;31.40;;;3.70;99.90;;;;;;5078174;28;20044;-60
2023/03/01 09:57:33;;;;;;;55.60;31.45;;;3.90;99.90;;;;;;5081660;28;20056;-59
2023/03/01 10:00:33;;;;;;;51.40;29.73;;;4.20;99.90;;;;;;5073781;28;21197;-59
2023/03/01 10:03:17;;;;;;;53.85;30.40;;;4.50;99.90;;;;;;5074881;28;20048;-58
2023/03/01 10:05:49;;;;;;;46.90;29.40;;;4.90;99.90;;;;;;5069536;28;20174;-59
2023/03/01 10:08:30;;;;;;;45.25;27.88;;;5.40;99.90;;;;;;5079399;28;20040;-58
2023/03/01 10:10:57;;;;;;;42.47;26.85;;;5.90;99.90;;;;;;5066402;28;20035;-60
2023/03/01 10:13:29;;;;;;;45.47;28.15;;;6.30;99.90;;;;;;5080826;28;20491;-59
2023/03/01 10:16:13;;;;;;;47.60;27.88;;;6.70;99.90;;;;;;5078334;28;20743;-59
2023/03/01 10:18:40;;;;;;;42.13;27.15;;;7.10;99.90;;;;;;5078601;28;20093;-58
2023/03/01 10:21:16;;;;;;;41.28;27.42;;;7.30;99.90;;;;;;5074502;28;20047;-60
2023/03/01 10:23:42;;;;;;;39.55;24.73;;;7.40;99.90;;;;;;5070066;28;20474;-60
2023/03/01 10:26:19;;;;;;;39.22;25.85;;;7.50;99.90;;;;;;5080570;28;20042;-59
2023/03/01 10:29:07;;;;;;;38.80;24.95;;;7.50;99.90;;;;;;5083424;28;20036;-59
2023/03/01 10:31:50;;;;;;;40.83;25.88;;;7.10;99.90;;;;;;5060349;28;20036;-60
2023/03/01 10:34:35;;;;;;;42.80;25.92;;;6.70;99.90;;;;;;5072677;28;20776;-61
2023/03/01 10:37:10;;;;;;;36.80;25.13;;;6.30;99.90;;;;;;5079889;28;20116;-61
2023/03/01 10:39:35;;;;;;;35.47;22.40;;;6.20;99.90;;;;;;5092817;27;20044;-60
2023/03/01 10:42:04;;;;;;;30.85;20.48;;;6.30;99.90;;;;;;5075510;28;20478;-60
2023/03/01 10:44:39;;;;;;;39.20;22.73;;;6.30;99.90;;;;;;5081840;28;20036;-58
2023/03/01 10:47:05;;;;;;;35.97;23.38;;;6.40;99.90;;;;;;5063484;28;20292;-60
2023/03/01 10:49:31;;;;;;;33.30;21.45;;;6.50;99.90;;;;;;5072911;28;20036;-59
2023/03/01 10:52:18;;;;;;;33.97;20.02;;;6.90;99.90;;;;;;5064561;28;20058;-59
2023/03/01 10:54:53;;;;;;;32.58;18.80;;;7.20;99.30;;;;;;5079034;28;20044;-59
2023/03/01 10:57:39;;;;;;;30.85;18.73;;;7.30;99.70;;;;;;5079416;28;20305;-60
2023/03/01 11:00:17;;;;;;;30.98;19.00;;;7.60;99.90;;;;;;5080261;28;20138;-60
2023/03/01 11:02:43;;;;;;;27.73;17.70;;;7.60;95.90;;;;;;5079021;28;20036;-60
2023/03/01 11:05:23;;;;;;;30.48;18.85;;;7.70;98.60;;;;;;5079742;28;20042;-61
2023/03/01 11:07:53;;;;;;;26.73;18.38;;;7.50;97.60;;;;;;5077757;28;20036;-60
2023/03/01 11:10:37;;;;;;;27.33;17.02;;;7.50;99.80;;;;;;5080557;28;20040;-61
2023/03/01 11:13:17;;;;;;;27.53;18.17;;;7.60;94.90;;;;;;5078164;28;20348;-58
2023/03/01 11:15:43;;;;;;;25.17;16.40;;;7.80;91.60;;;;;;5080365;28;20043;-59
2023/03/01 11:18:20;;;;;;;26.08;17.38;;;8.10;93.00;;;;;;5079509;28;20059;-60
2023/03/01 11:20:47;;;;;;;28.60;17.35;;;8.20;90.00;;;;;;5080457;28;20036;-62
2023/03/01 11:23:15;;;;;;;23.83;16.90;;;8.50;90.90;;;;;;5077123;28;20040;-60
2023/03/01 11:25:45;;;;;;;24.50;16.02;;;8.50;84.70;;;;;;5070898;28;20043;-61
2023/03/01 11:28:17;;;;;;;22.45;16.58;;;8.40;81.30;;;;;;5067944;28;20059;-61
2023/03/01 11:31:01;;;;;;;24.83;16.23;;;8.50;82.00;;;;;;5075669;28;20170;-61
2023/03/01 11:33:59;;;;;;;27.05;17.20;;;8.40;81.20;;;;;;5067917;28;20037;-59
2023/03/01 11:36:48;;;;;;;23.77;16.60;;;8.40;76.90;;;;;;5070365;28;20061;-60
2023/03/01 11:39:20;;;;;;;26.08;16.50;;;8.50;77.30;;;;;;5061903;28;20541;-61
2023/03/01 11:41:52;;;;;;;24.98;16.73;;;8.50;80.70;;;;;;5063739;28;20091;-60
2023/03/01 11:44:27;;;;;;;24.65;16.80;;;8.50;77.10;;;;;;5064566;28;20372;-61
2023/03/01 11:47:05;;;;;;;26.48;17.67;;;8.30;83.30;;;;;;5082713;28;20059;-60
2023/03/01 11:49:59;;;;;;;27.50;18.00;;;8.20;82.50;;;;;;5081074;28;20032;-60
2023/03/01 11:52:58;;;;;;;27.02;17.25;;;8.20;84.10;;;;;;5077962;28;20722;-60
2023/03/01 11:55:33;;;;;;;26.75;17.02;;;8.00;75.40;;;;;;5080907;28;20528;-61
2023/03/01 11:58:19;;;;;;;26.30;16.17;;;7.90;79.40;;;;;;5081875;28;20343;-59
2023/03/01 12:00:51;;;;;;;25.00;16.15;;;7.70;78.30;;;;;;5079402;28;20048;-60
2023/03/01 12:03:53;;;;;;;23.45;16.58;;;7.70;84.40;;;;;;5079316;28;20075;-61
2023/03/01 12:06:46;;;;;;;23.13;15.50;;;7.90;80.90;;;;;;5063132;28;20070;-60
2023/03/01 12:09:38;;;;;;;23.80;16.00;;;8.10;84.70;;;;;;5062771;28;20471;-58
2023/03/01 12:12:38;;;;;;;20.33;13.07;;;8.20;82.40;;;;;;5063581;28;20047;-59
2023/03/01 12:15:27;;;;;;;26.38;15.52;;;8.10;71.60;;;;;;5062860;28;20047;-58
2023/03/01 12:18:15;;;;;;;27.50;14.50;;;8.20;77.50;;;;;;5077825;28;20517;-58
2023/03/01 12:20:51;;;;;;;24.00;13.35;;;8.20;77.00;;;;;;5081807;28;20036;-58
2023/03/01 12:23:31;;;;;;;21.80;13.60;;;8.20;72.70;;;;;;5063996;28;20123;-60
2023/03/01 12:26:31;;;;;;;22.50;14.85;;;8.10;71.60;;;;;;5063480;28;20098;-59
2023/03/01 12:29:14;;;;;;;27.63;15.57;;;8.20;76.00;;;;;;5062432;28;20115;-58
2023/03/01 12:31:44;;;;;;;23.05;14.35;;;8.50;78.30;;;;;;5083065;28;20086;-60
2023/03/01 12:34:34;;;;;;;24.35;15.27;;;8.60;78.90;;;;;;5078076;28;20035;-59
2023/03/01 12:37:19;;;;;;;27.05;17.20;;;8.50;80.40;;;;;;5076814;28;20040;-61
2023/03/01 12:40:22;;;;;;;28.33;16.15;;;8.50;83.80;;;;;;5062344;28;20044;-59
2023/03/01 12:43:06;;;;;;;27.42;16.73;;;8.40;82.30;;;;;;5064056;28;20049;-60
2023/03/01 12:46:04;;;;;;;29.60;18.13;;;8.20;81.70;;;;;;5063854;28;20090;-61
2023/03/01 12:48:54;;;;;;;27.42;17.60;;;8.00;86.80;;;;;;5062309;28;20123;-59